0°C Temp
-7°C Dewpoint
60% Humidity
Temperature
34 KM/H
21 MPH
18 KTS
300°
West North
West

Wind Speed
Overcast
Conditions
Pressure 1015.22 (hPa) - 29.98 (in)
Visibility 8.7 (mi) - 14.0 (km)

Current Conditions
CYZE
Location 50(km)
Metar :CYZE 202300Z AUTO 30018G24KT 9SM OVC047 M00/M07 A2998 RMK SLP163
Tue 20th April 19:00 pm

Airport
  Metar Aviation API Data Provided by https://www.checkwx.com/ PHP scripts by weather34.com ©2021